Time;durP1;ratioP1;P1;durP2;ratioP2;P2;SDS_P1;SDS_P2;PMS_P1;PMS_P2;Temp;Humidity;BMP_temperature;BMP_pressure;BME280_temperature;BME280_humidity;BME280_pressure;Samples;Min_cycle;Max_cycle;Signal;HPM_P1;HPM_P2
2022/12/10 00:02:20;;;;;;;;;;;2.10;99.90;;;;;;5060813;28;19929;-87
2022/12/10 00:04:47;;;;;;;;;;;2.10;99.90;;;;;;5063183;28;19929;-86
2022/12/10 00:07:14;;;;;;;;;;;2.20;99.90;;;;;;5055558;28;20648;-85
2022/12/10 00:09:41;;;;;;;;;;;2.10;99.90;;;;;;5050699;28;19968;-85
2022/12/10 00:12:08;;;;;;;;;;;2.10;99.90;;;;;;5067387;28;19962;-84
2022/12/10 00:14:35;;;;;;;;;;;2.20;99.90;;;;;;5062524;28;19925;-84
2022/12/10 00:17:02;;;;;;;;;;;2.10;99.90;;;;;;5052136;28;20036;-85
2022/12/10 00:19:30;;;;;;;;;;;2.10;99.90;;;;;;5053965;28;20012;-85
2022/12/10 00:21:58;;;;;;;;;;;2.10;99.90;;;;;;5061652;28;19933;-85
2022/12/10 00:24:32;;;;;;;;;;;2.10;99.90;;;;;;5056454;28;19929;-86
2022/12/10 00:26:59;;;;;;;;;;;2.20;99.90;;;;;;5054559;28;19975;-83
2022/12/10 00:29:26;;;;;;;;;;;2.10;99.90;;;;;;5066442;28;19946;-85
2022/12/10 00:31:53;;;;;;;;;;;2.10;99.90;;;;;;5051737;28;19925;-85
2022/12/10 00:34:20;;;;;;;;;;;2.10;99.90;;;;;;5061722;28;19967;-85
2022/12/10 00:36:49;;;;;;;;;;;2.20;99.90;;;;;;5054933;28;19929;-85
2022/12/10 00:39:18;;;;;;;;;;;2.10;99.90;;;;;;5059895;28;20468;-85
2022/12/10 00:41:47;;;;;;;;;;;2.10;99.90;;;;;;5059282;28;19925;-85
2022/12/10 00:44:14;;;;;;;;;;;2.10;99.90;;;;;;5058555;28;19921;-85
2022/12/10 00:46:41;;;;;;;;;;;2.10;99.90;;;;;;5059887;28;19925;-85
2022/12/10 00:49:09;;;;;;;;;;;2.10;99.90;;;;;;5064588;28;20305;-87
2022/12/10 00:51:36;;;;;;;;;;;2.10;99.90;;;;;;5070330;28;19925;-86
2022/12/10 00:54:04;;;;;;;;;;;2.00;99.90;;;;;;5051617;28;19963;-84
2022/12/10 00:56:33;;;;;;;;;;;2.10;99.90;;;;;;5057448;28;19925;-85
2022/12/10 00:59:01;;;;;;;;;;;2.10;99.90;;;;;;5062490;28;19929;-84
2022/12/10 01:01:32;;;;;;;;;;;2.10;99.90;;;;;;5069695;28;19950;-87
2022/12/10 01:04:00;;;;;;;;;;;2.10;99.90;;;;;;5054078;28;19972;-85
2022/12/10 01:06:28;;;;;;;;;;;2.10;99.90;;;;;;5059618;28;19925;-85
2022/12/10 01:08:57;;;;;;;;;;;2.10;99.90;;;;;;5057026;28;20325;-86
2022/12/10 01:11:27;;;;;;;;;;;2.10;99.90;;;;;;5060756;28;19939;-86
2022/12/10 01:13:54;;;;;;;;;;;2.10;99.90;;;;;;5064933;28;19957;-87
2022/12/10 01:16:22;;;;;;;;;;;2.20;99.90;;;;;;5071120;28;19988;-87
2022/12/10 01:18:53;;;;;;;;;;;2.10;99.90;;;;;;5059775;28;19936;-85
2022/12/10 01:21:20;;;;;;;;;;;2.10;99.90;;;;;;5053986;28;19925;-86
2022/12/10 01:23:51;;;;;;;;;;;2.10;99.90;;;;;;5063667;28;19950;-85
2022/12/10 01:26:20;;;;;;;;;;;2.10;99.90;;;;;;5055882;28;19933;-84
2022/12/10 01:28:48;;;;;;;;;;;2.10;99.90;;;;;;5057485;28;19929;-85
2022/12/10 01:31:16;;;;;;;;;;;2.10;99.90;;;;;;5056461;28;20133;-84
2022/12/10 01:33:43;;;;;;;;;;;2.10;99.90;;;;;;5060418;28;19956;-85
2022/12/10 01:36:11;;;;;;;;;;;2.10;99.90;;;;;;5051431;28;21514;-85
2022/12/10 01:38:39;;;;;;;;;;;2.10;99.90;;;;;;5056694;28;19933;-87
2022/12/10 01:41:07;;;;;;;;;;;2.10;99.90;;;;;;5056681;28;19931;-85
2022/12/10 01:46:30;;;;;;;;;;;2.10;99.90;;;;;;5126686;27;20385;-85
2022/12/10 01:48:58;;;;;;;;;;;2.10;99.90;;;;;;5127779;27;20477;-87
2022/12/10 01:51:26;;;;;;;;;;;2.20;99.90;;;;;;5119423;27;19924;-86
2022/12/10 01:53:53;;;;;;;;;;;2.10;99.90;;;;;;5135401;27;19924;-85
2022/12/10 01:56:20;;;;;;;;;;;2.10;99.90;;;;;;5123547;27;20381;-86
2022/12/10 01:58:49;;;;;;;;;;;2.10;99.90;;;;;;5121507;27;20448;-85
2022/12/10 02:01:20;;;;;;;;;;;2.10;99.90;;;;;;5117362;27;19931;-85
2022/12/10 02:03:53;;;;;;;;;;;2.10;99.90;;;;;;5124051;27;19973;-83
2022/12/10 02:06:33;;;;;;;;;;;2.10;99.90;;;;;;5125273;27;19945;-86
2022/12/10 02:09:08;;;;;;;;;;;2.10;99.90;;;;;;5126319;27;19958;-84
2022/12/10 02:11:39;;;;;;;;;;;2.10;99.90;;;;;;5120309;27;19924;-87
2022/12/10 02:14:19;;;;;;;;;;;2.10;99.90;;;;;;5125996;27;20487;-85
2022/12/10 02:16:49;;;;;;;;;;;2.10;99.90;;;;;;5115700;27;19928;-86
2022/12/10 02:19:21;;;;;;;;;;;2.10;99.90;;;;;;5123418;27;19927;-84
2022/12/10 02:21:50;;;;;;;;;;;2.10;99.90;;;;;;5117059;27;19946;-88
2022/12/10 02:24:21;;;;;;;;;;;2.10;99.90;;;;;;5119282;28;19924;-85
2022/12/10 02:26:50;;;;;;;;;;;2.10;99.90;;;;;;5118928;27;19935;-84
2022/12/10 02:29:19;;;;;;;;;;;2.10;99.90;;;;;;5118066;28;19957;-85
2022/12/10 02:31:48;;;;;;;;;;;2.20;99.90;;;;;;5119118;27;19931;-86
2022/12/10 02:34:15;;;;;;;;;;;2.10;99.90;;;;;;5124677;27;19930;-85
2022/12/10 02:36:44;;;;;;;;;;;2.00;99.90;;;;;;5121719;27;19946;-85
2022/12/10 02:39:13;;;;;;;;;;;2.10;99.90;;;;;;5125462;27;19932;-84
2022/12/10 02:41:49;;;;;;;;;;;2.10;99.90;;;;;;5118137;27;20172;-85
2022/12/10 02:44:19;;;;;;;;;;;2.10;99.90;;;;;;5127364;27;19932;-85
2022/12/10 02:46:48;;;;;;;;;;;2.10;99.90;;;;;;5122007;27;19928;-86
2022/12/10 02:49:17;;;;;;;;;;;2.10;99.90;;;;;;5119186;27;20001;-86
2022/12/10 02:51:44;;;;;;;;;;;2.00;99.90;;;;;;5126073;27;19923;-85
2022/12/10 02:54:26;;;;;;;;;;;2.10;99.90;;;;;;5126974;27;19955;-85
2022/12/10 02:56:56;;;;;;;;;;;2.10;99.90;;;;;;5123522;27;20395;-85
2022/12/10 02:59:29;;;;;;;;;;;2.10;99.90;;;;;;5114231;27;20324;-86
2022/12/10 03:02:01;;;;;;;;;;;2.10;99.90;;;;;;5109192;27;19923;-85
2022/12/10 03:04:33;;;;;;;;;;;2.10;99.90;;;;;;5125614;27;19924;-84
2022/12/10 03:07:03;;;;;;;;;;;2.10;99.90;;;;;;5127947;27;19934;-85
2022/12/10 03:09:33;;;;;;;;;;;2.10;99.90;;;;;;5111442;27;19927;-84
2022/12/10 03:12:03;;;;;;;;;;;2.10;99.90;;;;;;5129144;27;19924;-85
2022/12/10 03:14:32;;;;;;;;;;;2.10;99.90;;;;;;5131253;27;19927;-85
2022/12/10 03:17:00;;;;;;;;;;;2.10;99.90;;;;;;5109618;27;19980;-84
2022/12/10 03:19:31;;;;;;;;;;;2.10;99.90;;;;;;5129202;27;20399;-85
2022/12/10 03:21:59;;;;;;;;;;;2.20;99.90;;;;;;5108980;27;19927;-86
2022/12/10 03:24:27;;;;;;;;;;;2.10;99.90;;;;;;5123954;27;20411;-84
2022/12/10 03:26:55;;;;;;;;;;;2.10;99.90;;;;;;5129178;27;20415;-84
2022/12/10 03:29:23;;;;;;;;;;;2.10;99.90;;;;;;5126251;27;19943;-85
2022/12/10 03:31:53;;;;;;;;;;;2.20;99.90;;;;;;5109044;27;19928;-85
2022/12/10 03:34:23;;;;;;;;;;;2.10;99.90;;;;;;5118140;27;19928;-87
2022/12/10 03:36:51;;;;;;;;;;;2.20;99.90;;;;;;5123112;27;19931;-87
2022/12/10 03:39:18;;;;;;;;;;;2.10;99.90;;;;;;5104212;27;19951;-86
2022/12/10 03:41:45;;;;;;;;;;;2.10;99.90;;;;;;5121547;27;19931;-85
2022/12/10 03:44:12;;;;;;;;;;;2.10;99.90;;;;;;5103091;27;19965;-83
2022/12/10 03:46:39;;;;;;;;;;;2.10;99.90;;;;;;5128193;27;19938;-84
2022/12/10 03:49:07;;;;;;;;;;;2.10;99.90;;;;;;5125370;27;20010;-84
2022/12/10 03:51:34;;;;;;;;;;;2.10;99.90;;;;;;5108902;27;20509;-86
2022/12/10 03:54:04;;;;;;;;;;;2.00;99.90;;;;;;5126292;27;19963;-85
2022/12/10 03:56:31;;;;;;;;;;;2.00;99.90;;;;;;5106843;27;19928;-84
2022/12/10 03:58:58;;;;;;;;;;;2.00;99.90;;;;;;5126217;27;19950;-85
2022/12/10 04:01:25;;;;;;;;;;;2.00;99.90;;;;;;5109102;27;19932;-86
2022/12/10 04:03:52;;;;;;;;;;;2.10;99.90;;;;;;5107488;27;20012;-85
2022/12/10 04:06:20;;;;;;;;;;;2.10;99.90;;;;;;5126427;27;19931;-86
2022/12/10 04:08:50;;;;;;;;;;;2.10;99.90;;;;;;5122829;27;20018;-87
2022/12/10 04:11:17;;;;;;;;;;;2.10;99.90;;;;;;5127516;27;19934;-88
2022/12/10 04:16:29;;;;;;;;;;;2.10;99.90;;;;;;5107555;27;20334;-84
2022/12/10 04:18:57;;;;;;;;;;;2.10;99.90;;;;;;5125626;27;19930;-86
2022/12/10 04:26:58;;;;;;;;;;;2.00;99.90;;;;;;5120565;27;19927;-85
2022/12/10 04:29:25;;;;;;;;;;;2.10;99.90;;;;;;5128849;27;20011;-86
2022/12/10 04:31:52;;;;;;;;;;;2.00;99.90;;;;;;5117981;27;19925;-86
2022/12/10 04:34:20;;;;;;;;;;;2.10;99.90;;;;;;5119142;27;19998;-88
2022/12/10 04:36:48;;;;;;;;;;;2.10;99.90;;;;;;5116717;27;20022;-86
2022/12/10 04:39:15;;;;;;;;;;;2.10;99.90;;;;;;5120636;27;20043;-86
2022/12/10 04:41:43;;;;;;;;;;;2.10;99.90;;;;;;5125515;27;19928;-84
2022/12/10 04:44:10;;;;;;;;;;;2.10;99.90;;;;;;5111991;27;19946;-86
2022/12/10 04:46:39;;;;;;;;;;;2.00;99.90;;;;;;5107868;27;20022;-85
2022/12/10 04:49:07;;;;;;;;;;;2.10;99.90;;;;;;5112846;27;20384;-85
2022/12/10 04:51:34;;;;;;;;;;;2.00;99.90;;;;;;5111425;27;20012;-85
2022/12/10 04:54:02;;;;;;;;;;;2.10;99.90;;;;;;5127591;27;19928;-87
2022/12/10 04:56:29;;;;;;;;;;;2.00;99.90;;;;;;5129442;27;20013;-86
2022/12/10 04:58:57;;;;;;;;;;;2.00;99.90;;;;;;5135425;27;19923;-85
2022/12/10 05:01:24;;;;;;;;;;;2.00;99.90;;;;;;5128859;27;19924;-84
2022/12/10 05:03:51;;;;;;;;;;;2.00;99.90;;;;;;5119187;27;19928;-84
2022/12/10 05:06:18;;;;;;;;;;;2.00;99.90;;;;;;5101094;27;20488;-86
2022/12/10 05:08:46;;;;;;;;;;;2.00;99.90;;;;;;5113420;27;19946;-85
2022/12/10 05:11:15;;;;;;;;;;;2.00;99.90;;;;;;5108644;27;20190;-86
2022/12/10 05:13:42;;;;;;;;;;;2.00;99.90;;;;;;5123401;27;19931;-86
2022/12/10 05:16:10;;;;;;;;;;;2.10;99.90;;;;;;5128784;27;19923;-86
2022/12/10 05:18:40;;;;;;;;;;;2.00;99.90;;;;;;5128733;27;20384;-85
2022/12/10 05:21:13;;;;;;;;;;;2.00;99.90;;;;;;5125525;27;20032;-86
2022/12/10 05:23:39;;;;;;;;;;;2.00;99.90;;;;;;5105958;27;19923;-85
2022/12/10 05:26:08;;;;;;;;;;;2.10;99.90;;;;;;5126133;27;19970;-86
2022/12/10 05:28:37;;;;;;;;;;;2.00;99.90;;;;;;5131795;27;19931;-86
2022/12/10 05:31:04;;;;;;;;;;;2.00;99.90;;;;;;5125418;27;19928;-86
2022/12/10 05:33:31;;;;;;;;;;;2.00;99.90;;;;;;5120040;27;19927;-85
2022/12/10 05:35:59;;;;;;;;;;;2.10;99.90;;;;;;5113996;27;20352;-86
2022/12/10 05:38:26;;;;;;;;;;;2.00;99.90;;;;;;5118293;27;19973;-86
2022/12/10 05:40:53;;;;;;;;;;;2.00;99.90;;;;;;5125951;27;19963;-87
2022/12/10 05:43:20;;;;;;;;;;;2.10;99.90;;;;;;5100640;28;19931;-84
2022/12/10 05:45:48;;;;;;;;;;;2.00;99.90;;;;;;5118554;28;20003;-84
2022/12/10 05:48:16;;;;;;;;;;;2.00;99.90;;;;;;5123403;27;19932;-86
2022/12/10 05:50:43;;;;;;;;;;;2.10;99.90;;;;;;5120733;27;19931;-88
2022/12/10 05:53:13;;;;;;;;;;;2.00;99.90;;;;;;5112978;28;20022;-84
2022/12/10 05:55:40;;;;;;;;;;;2.00;99.90;;;;;;5125210;28;19969;-84
2022/12/10 05:58:07;;;;;;;;;;;2.00;99.90;;;;;;5131713;27;20473;-86
2022/12/10 06:00:35;;;;;;;;;;;2.00;99.90;;;;;;5114388;28;19924;-85
2022/12/10 06:03:03;;;;;;;;;;;2.00;99.90;;;;;;5108934;28;20373;-87
2022/12/10 06:05:30;;;;;;;;;;;2.00;99.90;;;;;;5128962;28;19927;-87
2022/12/10 06:07:57;;;;;;;;;;;2.00;99.90;;;;;;5132062;27;19927;-86
2022/12/10 06:10:24;;;;;;;;;;;2.00;99.90;;;;;;5135332;27;19924;-86
2022/12/10 06:12:51;;;;;;;;;;;2.00;99.90;;;;;;5113705;28;19928;-86
2022/12/10 06:15:18;;;;;;;;;;;2.00;99.90;;;;;;5123373;28;20409;-84
2022/12/10 06:17:44;;;;;;;;;;;1.90;99.90;;;;;;5109920;28;19923;-86
2022/12/10 06:20:13;;;;;;;;;;;2.00;99.90;;;;;;5125272;28;20408;-86
2022/12/10 06:22:40;;;;;;;;;;;2.00;99.90;;;;;;5124175;27;19924;-86
2022/12/10 06:25:07;;;;;;;;;;;1.90;99.90;;;;;;5126535;27;19958;-86
2022/12/10 06:27:34;;;;;;;;;;;2.00;99.90;;;;;;5110851;28;19924;-85
2022/12/10 06:30:01;;;;;;;;;;;2.00;99.90;;;;;;5127138;27;19932;-86
2022/12/10 06:32:28;;;;;;;;;;;2.00;99.90;;;;;;5112613;27;19927;-85
2022/12/10 06:34:55;;;;;;;;;;;2.00;99.90;;;;;;5112815;27;19932;-86
2022/12/10 06:37:23;;;;;;;;;;;2.00;99.90;;;;;;5105746;27;20084;-86
2022/12/10 06:39:51;;;;;;;;;;;2.00;99.90;;;;;;5104603;27;19927;-87
2022/12/10 06:42:17;;;;;;;;;;;2.00;99.90;;;;;;5130223;27;20368;-85
2022/12/10 06:44:44;;;;;;;;;;;2.00;99.90;;;;;;5110126;27;19923;-86
2022/12/10 06:47:11;;;;;;;;;;;2.00;99.90;;;;;;5107111;27;19932;-85
2022/12/10 06:49:38;;;;;;;;;;;2.00;99.90;;;;;;5127742;27;19930;-85
2022/12/10 06:52:07;;;;;;;;;;;2.00;99.90;;;;;;5130928;27;20392;-86
2022/12/10 06:54:35;;;;;;;;;;;2.00;99.90;;;;;;5126912;27;19930;-85
2022/12/10 06:57:02;;;;;;;;;;;2.00;99.90;;;;;;5120898;27;19924;-85
2022/12/10 06:59:29;;;;;;;;;;;2.00;99.90;;;;;;5135225;27;19942;-87
2022/12/10 07:01:56;;;;;;;;;;;1.90;99.90;;;;;;5127462;27;19991;-84
2022/12/10 07:04:23;;;;;;;;;;;2.00;99.90;;;;;;5111092;27;19930;-86
2022/12/10 07:06:50;;;;;;;;;;;2.00;99.90;;;;;;5132989;27;19931;-86
2022/12/10 07:09:17;;;;;;;;;;;2.00;99.90;;;;;;5138101;27;19939;-85
2022/12/10 07:11:46;;;;;;;;;;;2.00;99.90;;;;;;5114812;27;20511;-87
2022/12/10 07:14:14;;;;;;;;;;;2.00;99.90;;;;;;5134389;27;19924;-86
2022/12/10 07:16:41;;;;;;;;;;;2.00;99.90;;;;;;5106077;27;19927;-85
2022/12/10 07:19:09;;;;;;;;;;;2.00;99.90;;;;;;5139181;27;19927;-86
2022/12/10 07:21:36;;;;;;;;;;;1.90;99.90;;;;;;5125100;27;20327;-86
2022/12/10 07:24:04;;;;;;;;;;;2.00;99.90;;;;;;5125946;27;20029;-85
2022/12/10 07:26:33;;;;;;;;;;;1.90;99.90;;;;;;5126392;27;19939;-86
2022/12/10 07:29:05;;;;;;;;;;;2.00;99.90;;;;;;5112660;27;19930;-89
2022/12/10 07:31:32;;;;;;;;;;;1.90;99.90;;;;;;5119564;27;20065;-86
2022/12/10 07:33:59;;;;;;;;;;;1.90;99.90;;;;;;5124412;27;19945;-86
2022/12/10 07:36:27;;;;;;;;;;;2.00;99.90;;;;;;5135270;27;19924;-86
2022/12/10 07:38:54;;;;;;;;;;;2.00;99.90;;;;;;5125294;27;19928;-85
2022/12/10 07:41:22;;;;;;;;;;;2.00;99.90;;;;;;5136140;27;19930;-86
2022/12/10 07:43:49;;;;;;;;;;;2.00;99.90;;;;;;5108532;27;19959;-87
2022/12/10 07:46:19;;;;;;;;;;;2.00;99.90;;;;;;5136604;27;19934;-87
2022/12/10 07:48:47;;;;;;;;;;;1.90;99.90;;;;;;5126761;27;19923;-86
2022/12/10 07:51:14;;;;;;;;;;;2.00;99.90;;;;;;5120195;27;19931;-85
2022/12/10 07:53:41;;;;;;;;;;;1.90;99.90;;;;;;5127152;27;19931;-85
2022/12/10 07:56:08;;;;;;;;;;;2.00;99.90;;;;;;5124108;27;19972;-86
2022/12/10 07:58:37;;;;;;;;;;;1.90;99.90;;;;;;5124532;27;20003;-85
2022/12/10 08:01:08;;;;;;;;;;;2.00;99.90;;;;;;5116190;27;19932;-85
2022/12/10 08:03:36;;;;;;;;;;;2.00;99.90;;;;;;5111539;28;19966;-85
2022/12/10 08:06:04;;;;;;;;;;;2.00;99.90;;;;;;5106730;27;19931;-85
2022/12/10 08:08:31;;;;;;;;;;;2.00;99.90;;;;;;5112668;27;19945;-87
2022/12/10 08:11:00;;;;;;;;;;;2.00;99.90;;;;;;5117328;27;19946;-85
2022/12/10 08:13:28;;;;;;;;;;;2.00;99.90;;;;;;5108773;27;19968;-86
2022/12/10 08:15:55;;;;;;;;;;;1.90;99.90;;;;;;5122949;27;19924;-85
2022/12/10 08:18:22;;;;;;;;;;;1.90;99.90;;;;;;5112228;27;19927;-85
2022/12/10 08:20:50;;;;;;;;;;;1.90;99.90;;;;;;5112909;27;19976;-82
2022/12/10 08:23:17;;;;;;;;;;;1.90;99.90;;;;;;5099958;27;21058;-84
2022/12/10 08:25:44;;;;;;;;;;;1.90;99.90;;;;;;5112877;27;19931;-83
2022/12/10 08:28:11;;;;;;;;;;;1.90;99.90;;;;;;5097083;27;19976;-83
2022/12/10 08:30:38;;;;;;;;;;;1.80;99.90;;;;;;5115620;27;20285;-82
2022/12/10 08:33:06;;;;;;;;;;;1.90;99.90;;;;;;5089707;27;19931;-81
2022/12/10 08:35:34;;;;;;;;;;;1.80;99.90;;;;;;5115987;27;19924;-83
2022/12/10 08:38:03;;;;;;;;;;;1.80;99.90;;;;;;5125928;27;19930;-84
2022/12/10 08:40:30;;;;;;;;;;;1.80;99.90;;;;;;5124538;27;19931;-84
2022/12/10 08:42:57;;;;;;;;;;;1.80;99.90;;;;;;5115212;27;19949;-81
2022/12/10 08:45:24;;;;;;;;;;;1.80;99.90;;;;;;5126462;27;19950;-82
2022/12/10 08:47:52;;;;;;;;;;;1.90;99.90;;;;;;5118395;27;20002;-81
2022/12/10 08:50:19;;;;;;;;;;;1.80;99.90;;;;;;5121768;27;19924;-83
2022/12/10 08:52:49;;;;;;;;;;;1.90;99.90;;;;;;5106085;27;19981;-79
2022/12/10 08:55:17;;;;;;;;;;;1.90;99.90;;;;;;5103938;27;20005;-77
2022/12/10 08:57:44;;;;;;;;;;;2.00;99.90;;;;;;5116944;27;19924;-80
2022/12/10 09:00:12;;;;;;;;;;;2.00;99.90;;;;;;5112537;27;20011;-78
2022/12/10 09:02:39;;;;;;;;;;;2.00;99.90;;;;;;5106786;27;19923;-80
2022/12/10 09:05:07;;;;;;;;;;;2.00;99.90;;;;;;5111805;27;19923;-78
2022/12/10 09:07:34;;;;;;;;;;;2.00;99.90;;;;;;5108884;27;19970;-78
2022/12/10 09:10:01;;;;;;;;;;;2.00;99.90;;;;;;5107961;27;19991;-77
2022/12/10 09:12:29;;;;;;;;;;;2.00;99.90;;;;;;5108729;27;20046;-76
2022/12/10 09:14:56;;;;;;;;;;;2.00;99.90;;;;;;5103377;27;19931;-76
2022/12/10 09:17:23;;;;;;;;;;;2.00;99.90;;;;;;5095322;28;20459;-76
2022/12/10 09:19:53;;;;;;;;;;;2.00;99.90;;;;;;5109144;27;19923;-77
2022/12/10 09:22:20;;;;;;;;;;;2.00;99.90;;;;;;5090611;27;19942;-77
2022/12/10 09:24:47;;;;;;;;;;;2.10;99.90;;;;;;5110850;27;20604;-76
2022/12/10 09:27:14;;;;;;;;;;;2.10;99.90;;;;;;5098927;27;19928;-77
2022/12/10 09:29:42;;;;;;;;;;;2.10;99.90;;;;;;5094467;27;19931;-78
2022/12/10 09:32:09;;;;;;;;;;;2.00;99.90;;;;;;5098152;27;19931;-76
2022/12/10 09:34:36;;;;;;;;;;;2.10;99.90;;;;;;5115806;27;19924;-77
2022/12/10 09:37:03;;;;;;;;;;;2.10;99.90;;;;;;5102342;28;19938;-77
2022/12/10 09:39:30;;;;;;;;;;;2.10;99.90;;;;;;5096792;27;19976;-77
2022/12/10 09:42:04;;;;;;;;;;;2.10;99.90;;;;;;5120139;27;20372;-79
2022/12/10 09:44:35;;;;;;;;;;;2.10;99.90;;;;;;5107777;27;19970;-78
2022/12/10 09:47:04;;;;;;;;;;;2.20;99.90;;;;;;5106240;27;19992;-77
2022/12/10 09:49:34;;;;;;;;;;;2.30;99.90;;;;;;5109415;27;19927;-78
2022/12/10 09:52:03;;;;;;;;;;;2.30;99.90;;;;;;5107485;27;20373;-77
2022/12/10 09:54:32;;;;;;;;;;;2.30;99.90;;;;;;5088986;27;20365;-76
2022/12/10 09:56:59;;;;;;;;;;;2.30;99.90;;;;;;5080938;27;19987;-78
2022/12/10 09:59:30;;;;;;;;;;;2.30;99.90;;;;;;5090991;27;19924;-78
2022/12/10 10:02:02;;;;;;;;;;;2.40;99.90;;;;;;5105916;27;19930;-78
2022/12/10 10:04:30;;;;;;;;;;;2.40;99.90;;;;;;5086208;28;20300;-78
2022/12/10 10:06:57;;;;;;;;;;;2.30;99.90;;;;;;5110311;27;19932;-78
2022/12/10 10:09:27;;;;;;;;;;;2.30;99.90;;;;;;5111584;27;19930;-78
2022/12/10 10:11:54;;;;;;;;;;;2.40;99.90;;;;;;5114998;27;20015;-79
2022/12/10 10:14:25;;;;;;;;;;;2.40;99.90;;;;;;5114677;27;19932;-77
2022/12/10 10:16:55;;;;;;;;;;;2.40;99.90;;;;;;5114915;27;19931;-78
2022/12/10 10:19:26;;;;;;;;;;;2.40;99.90;;;;;;5112201;27;20381;-78
2022/12/10 10:21:54;;;;;;;;;;;2.40;99.90;;;;;;5104272;27;19927;-78
2022/12/10 10:24:22;;;;;;;;;;;2.40;99.90;;;;;;5112351;27;20586;-77
2022/12/10 10:26:50;;;;;;;;;;;2.40;99.90;;;;;;5103110;27;19923;-77
2022/12/10 10:29:19;;;;;;;;;;;2.40;99.90;;;;;;5109627;27;20007;-77
2022/12/10 10:31:48;;;;;;;;;;;2.40;99.90;;;;;;5107319;27;19935;-78
2022/12/10 10:34:17;;;;;;;;;;;2.40;99.90;;;;;;5096601;27;20030;-77
2022/12/10 10:36:44;;;;;;;;;;;2.40;99.90;;;;;;5113703;27;20408;-77
2022/12/10 10:39:22;;;;;;;;;;;2.40;99.90;;;;;;5108683;27;20308;-78
2022/12/10 10:41:52;;;;;;;;;;;2.40;99.90;;;;;;5119092;27;19953;-77
2022/12/10 10:44:20;;;;;;;;;;;2.40;99.90;;;;;;5100778;27;19931;-77
2022/12/10 10:46:47;;;;;;;;;;;2.40;99.90;;;;;;5111886;27;19969;-77
2022/12/10 10:49:19;;;;;;;;;;;2.40;99.90;;;;;;5107158;27;19971;-79
2022/12/10 10:51:46;;;;;;;;;;;2.40;99.90;;;;;;5106496;27;19942;-77
2022/12/10 10:54:31;;;;;;;;;;;2.30;99.90;;;;;;5106433;27;19931;-77
2022/12/10 10:56:58;;;;;;;;;;;2.40;99.90;;;;;;5096707;27;19953;-78
2022/12/10 10:59:30;;;;;;;;;;;2.40;99.90;;;;;;5111496;27;19931;-76
2022/12/10 11:02:00;;;;;;;;;;;2.30;99.90;;;;;;5102335;27;19923;-77
2022/12/10 11:04:30;;;;;;;;;;;2.40;99.90;;;;;;5100046;27;19928;-77
2022/12/10 11:07:01;;;;;;;;;;;2.30;99.90;;;;;;5118067;27;20133;-78
2022/12/10 11:09:30;;;;;;;;;;;2.30;99.90;;;;;;5114653;27;20457;-78
2022/12/10 11:11:59;;;;;;;;;;;2.40;99.90;;;;;;5110730;27;20373;-79
2022/12/10 11:14:27;;;;;;;;;;;2.40;99.90;;;;;;5102942;27;19998;-78
2022/12/10 11:17:01;;;;;;;;;;;2.30;99.90;;;;;;5103761;27;19923;-77
2022/12/10 11:19:28;;;;;;;;;;;2.40;99.90;;;;;;5122230;27;19923;-78
2022/12/10 11:21:55;;;;;;;;;;;2.40;99.90;;;;;;5111562;27;19927;-78
2022/12/10 11:24:22;;;;;;;;;;;2.30;99.90;;;;;;5097664;27;19931;-76
2022/12/10 11:27:03;;;;;;;;;;;2.30;99.90;;;;;;5118803;27;19923;-77
2022/12/10 11:29:42;;;;;;;;;;;2.30;99.90;;;;;;5112097;27;19938;-77
2022/12/10 11:32:17;;;;;;;;;;;2.20;99.90;;;;;;5091274;27;20392;-77
2022/12/10 11:34:49;;;;;;;;;;;2.20;99.90;;;;;;5117216;27;19924;-77
2022/12/10 11:37:19;;;;;;;;;;;2.20;99.90;;;;;;5110049;27;19932;-76
2022/12/10 11:39:56;;;;;;;;;;;2.20;99.90;;;;;;5096500;27;19924;-77
2022/12/10 11:42:27;;;;;;;;;;;2.20;99.90;;;;;;5113164;27;19928;-77
2022/12/10 11:44:57;;;;;;;;;;;2.20;99.90;;;;;;5117437;27;19923;-77
2022/12/10 11:47:30;;;;;;;;;;;2.10;99.90;;;;;;5114834;27;19924;-78
2022/12/10 11:50:02;;;;;;;;;;;2.10;99.90;;;;;;5117245;27;20420;-79
2022/12/10 11:52:35;;;;;;;;;;;2.20;99.90;;;;;;5111874;27;20015;-78
2022/12/10 11:55:07;;;;;;;;;;;2.20;99.90;;;;;;5116244;27;19938;-77
2022/12/10 11:57:40;;;;;;;;;;;2.20;99.90;;;;;;5113300;27;19931;-78
2022/12/10 12:00:17;;;;;;;;;;;2.10;99.90;;;;;;5103138;27;19965;-78
2022/12/10 12:03:02;;;;;;;;;;;2.20;99.90;;;;;;5110913;27;19959;-79
2022/12/10 12:05:41;;;;;;;;;;;2.10;99.90;;;;;;5128212;27;19930;-79
2022/12/10 12:08:12;;;;;;;;;;;2.10;99.90;;;;;;5114749;27;19931;-80
2022/12/10 12:10:58;;;;;;;;;;;2.10;99.90;;;;;;5103587;27;20300;-79
2022/12/10 12:13:29;;;;;;;;;;;2.10;99.90;;;;;;5116369;27;19977;-80
2022/12/10 12:15:58;;;;;;;;;;;2.10;99.90;;;;;;5105264;28;19927;-79
2022/12/10 12:18:28;;;;;;;;;;;2.10;99.90;;;;;;5099701;27;19928;-79
2022/12/10 12:20:58;;;;;;;;;;;2.10;99.90;;;;;;5104380;27;19936;-79
2022/12/10 12:23:29;;;;;;;;;;;2.20;99.90;;;;;;5118125;27;19966;-80
2022/12/10 12:25:58;;;;;;;;;;;2.20;99.90;;;;;;5111955;27;19931;-79
2022/12/10 12:28:26;;;;;;;;;;;2.20;99.90;;;;;;5119186;27;19923;-78
2022/12/10 12:30:59;;;;;;;;;;;2.20;99.90;;;;;;5118681;27;19938;-78
2022/12/10 12:33:28;;;;;;;;;;;2.10;99.90;;;;;;5133472;22;19939;-55
2022/12/10 12:35:59;;;;;;;;;;;2.20;99.90;;;;;;5084981;28;19928;-54
2022/12/10 12:38:29;;;;;;;;;;;2.20;99.90;;;;;;5084382;28;19924;-56
2022/12/10 12:40:57;;;;;;;;;;;2.20;99.90;;;;;;5066873;28;20408;-60
2022/12/10 12:43:27;;;;;;;;;;;2.20;99.90;;;;;;5083899;28;19932;-55
2022/12/10 12:45:55;;;;;;;;;;;2.20;99.90;;;;;;5088729;28;20446;-62
2022/12/10 12:48:27;;;;;;;;;;;2.20;99.90;;;;;;5083424;28;19957;-58
2022/12/10 12:50:55;;;;;;;;;;;2.20;99.90;;;;;;5086918;28;19978;-70
2022/12/10 12:53:23;;;;;;;;;;;2.20;99.90;;;;;;5086375;28;19930;-58
2022/12/10 12:55:56;;;;;;;;;;;2.30;99.90;;;;;;5082377;28;19932;-64
2022/12/10 12:58:27;;;;;;;;;;;2.20;99.90;;;;;;5086371;28;20029;-55
2022/12/10 13:00:57;;;;;;;;;;;2.20;99.90;;;;;;5084910;28;19969;-54
2022/12/10 13:03:33;;;;;;;;;;;2.20;99.90;;;;;;5081563;28;19960;-56
2022/12/10 13:06:12;;;;;;;;;;;2.20;99.90;;;;;;5091450;28;19928;-54
2022/12/10 13:08:42;;;;;;;;;;;2.20;99.90;;;;;;5082987;28;19971;-54
2022/12/10 13:11:18;;;;;;;;;;;2.20;99.90;;;;;;5086513;28;19972;-55
2022/12/10 13:13:59;;;;;;;;;;;2.20;99.90;;;;;;5085717;28;19924;-55
2022/12/10 13:16:47;;;;;;;;;;;2.20;99.90;;;;;;5086230;28;19932;-56
2022/12/10 13:19:24;;;;;;;;;;;2.20;99.90;;;;;;5087904;28;19924;-56
2022/12/10 13:22:13;;;;;;;;;;;2.20;99.90;;;;;;5085149;28;19967;-54
2022/12/10 13:24:48;;;;;;;;;;;2.30;99.90;;;;;;5066418;28;19935;-54
2022/12/10 13:27:19;;;;;;;;;;;2.20;99.90;;;;;;5076406;28;19928;-54
2022/12/10 13:29:47;;;;;;;;;;;2.20;99.90;;;;;;5085259;28;20406;-56
2022/12/10 13:32:18;;;;;;;;;;;2.20;99.90;;;;;;5084542;28;20297;-56
2022/12/10 13:34:45;;;;;;;;;;;2.20;99.90;;;;;;5071688;28;19931;-55
2022/12/10 13:37:32;;;;;;;;;;;2.20;99.90;;;;;;5078123;28;19943;-55
2022/12/10 13:40:02;;;;;;;;;;;2.20;99.90;;;;;;5089385;28;20030;-56
2022/12/10 13:45:26;;;;;;;;;;;2.20;99.90;;;;;;5089666;28;19920;-55
2022/12/10 13:47:56;;;;;;;;;;;2.20;99.90;;;;;;5093436;28;19949;-56
2022/12/10 13:50:33;;;;;;;;;;;2.20;99.90;;;;;;5072346;28;20383;-56
2022/12/10 13:53:04;;;;;;;;;;;2.20;99.90;;;;;;5084515;28;20504;-55
2022/12/10 13:55:35;;;;;;;;;;;2.20;99.90;;;;;;5089927;28;20352;-56
2022/12/10 13:58:20;;;;;;;;;;;2.20;99.90;;;;;;5095615;28;19932;-55
2022/12/10 14:00:50;;;;;;;;;;;2.20;99.90;;;;;;5072758;28;20010;-55
2022/12/10 14:03:38;;;;;;;;;;;2.20;99.90;;;;;;5094484;28;19930;-56
2022/12/10 14:06:16;;;;;;;;;;;2.20;99.90;;;;;;5096168;28;19975;-55
2022/12/10 14:08:53;;;;;;;;;;;2.20;99.90;;;;;;5091055;28;19924;-55
2022/12/10 14:11:22;;;;;;;;;;;2.20;99.90;;;;;;5084945;28;19924;-56
2022/12/10 14:13:52;;;;;;;;;;;2.20;99.90;;;;;;5092464;28;20530;-55
2022/12/10 14:16:21;;;;;;;;;;;2.20;99.90;;;;;;5094089;28;20406;-55
2022/12/10 14:18:52;;;;;;;;;;;2.20;99.90;;;;;;5091888;28;19932;-56
2022/12/10 14:21:19;;;;;;;;;;;2.20;99.90;;;;;;5086684;28;20540;-56
2022/12/10 14:23:47;;;;;;;;;;;2.20;99.90;;;;;;5091764;28;19946;-56
2022/12/10 14:26:15;;;;;;;;;;;2.20;99.90;;;;;;5090699;28;19928;-56
2022/12/10 14:28:42;;;;;;;;;;;2.20;99.90;;;;;;5084800;28;20334;-56
2022/12/10 14:31:13;;;;;;;;;;;2.20;99.90;;;;;;5087033;28;19928;-56
2022/12/10 14:33:40;;;;;;;;;;;2.20;99.90;;;;;;5098177;28;19924;-56
2022/12/10 14:36:15;;;;;;;;;;;2.20;99.90;;;;;;5089700;28;19932;-56
2022/12/10 14:38:42;;;;;;;;;;;2.20;99.90;;;;;;5090093;28;19924;-55
2022/12/10 14:41:11;;;;;;;;;;;2.20;99.90;;;;;;5086424;28;19928;-56
2022/12/10 14:43:39;;;;;;;;;;;2.20;99.90;;;;;;5091915;28;20344;-55
2022/12/10 14:46:06;;;;;;;;;;;2.20;99.90;;;;;;5062401;28;19928;-55
2022/12/10 14:48:39;;;;;;;;;;;2.20;99.90;;;;;;5077736;28;20427;-55
2022/12/10 14:51:12;;;;;;;;;;;2.20;99.90;;;;;;5090848;28;19925;-55
2022/12/10 14:53:39;;;;;;;;;;;2.20;99.90;;;;;;5087171;28;19935;-55
2022/12/10 14:56:07;;;;;;;;;;;2.20;99.90;;;;;;5092348;28;19925;-56
2022/12/10 14:58:36;;;;;;;;;;;2.20;99.90;;;;;;5090539;28;20010;-55